Traverse City, MI

4:17 AM EST on November 29, 2014 (GMT -0500)
bunger | Change Station
CLOSE
Current Station
Personal Weather Station
Location: Traverse City, MI
Elevation: 646 ft
Nearby Weather Stations

Elev 646 ft 44.77 °N, 85.58 °W | Updated 2 days ago

Sleet
Sleet
34 °F
Feels Like 28 °F
N
8
Wind Variable Wind from SSE
Gusts 10 mph

Today
High -- | Low -- °F
--% Chance of Precip.
Yesterday
High -- | Low -- °F
Precip. -- in
7:57 AM 5:03 PM
Waxing Crescent, 49% visible
Pressure 29.89 in
Visibility 9.0 miles
Clouds Overcast 1500 ft
Windchill 28 °F
Dew Point 27 °F
Humidity 74%
Rainfall 0.00 in
Snow Depth Not available.
UV 0 out of 12
Pollen .10 out of 12
Air Quality Not available.
Flu Activity Not available.
METAR KTVC 290853Z AUTO VRB04KT 9SM OVC015 M03/M06 A2986 RMK AO2 SLP121 60000 I3000 T10281061 58020

More Conditions Fewer Conditions

Pressure 29.89 in
Visibility 9.0 miles
Clouds Overcast 1500 ft
Windchill 28 °F
Dew Point 27 °F
Humidity 74%
Rainfall 0.00 in
Snow Depth Not available.
UV 0 out of 12
Pollen .10 out of 12
Air Quality Not available.
Flu Activity Not available.
METAR KTVC 290853Z AUTO VRB04KT 9SM OVC015 M03/M06 A2986 RMK AO2 SLP121 60000 I3000 T10281061 58020

More Conditions Fewer Conditions

Nowcast | as of 4:00 am EST on November 29, 2014

At 5 am...cloudy. Chance of light freezing rain and light sleet. Temperature 28. Southeast winds 9 mph. At 7 am...cloudy. Patchy freezing drizzle. Temperature 29. South winds 9 mph. At 9 am...cloudy. Patchy freezing drizzle. Temperature 30. South winds 10 mph. At 11 am...cloudy. Patchy drizzle. Temperature 33. South winds 10 mph.

×

10-Day Weather Forecast

Almanac

Astronomy

Nov. 29, 2014 Rise Set
Actual Time
Civil Twilight
Nautical Twilight
Astronomical Twilight
Moon
Length of Visible Light
Length of Day
Tomorrow will be .
, % of the Moon is Illuminated

Today's Extremes

State Highs State Lows

Community

WunderPhotos

Upload Photos

1,774,442 photos uploaded!

WunderBlogs® & News

Nearby

Air Quality

  Air Quality AQ Index Pollutant
Not available.

Snow Depth

Station Depth Elevation

Earthquake Activity

City Distance Mag. Time & Date
Minimum magnitude displayed is 2.5.

Coastal Water Temperatures

Place Temperature

Nearby Weather Stations